Dirección General De Aeronáutica Civil

Dirección Meteorológica de Chile - Servicios Climáticos

Informe General de Control de Calidad de la Estación

Listado de niveles de control de calidad para algunos parámetros
Estación Coihueco (360084)
Fecha de Revisión de los datos :

Elementos

Registros Niveles de Control Total
Nivel 0 Nivel 1 Nivel 2 Nivel 3 Errores Porcentaje
01 Temperatura del Aire Seco 124.572 0 . 369 0.30 % 0 . 0 . 369 0.30 %
02 Temperatura de Rocío 124.585 0 . 0 . 0 . 0 . 0 0.00 %
03 Humedad Relativa del Aire 124.599 0 . 0 . 0 . 0 . 0 0.00 %
04 Temperatura Máxima PM 1.031 0 . 0 . 0 . 0 . 0 0.00 %
05 Temperatura Mínima AM 1.016 0 . 0 . 0 . 0 . 0 0.00 %
06 Agua Caida, Acumulada 6 Horas 21.753 0 . 0 . 0 . 0 . 0 0.00 %
07 Presión Atm. a Nivel de Estación (QFE) 124.085 0 . 0 . 0 . 0 . 0 0.00 %
08 Presión Atm. a Nivel Medio del Mar (QFF) 24.113 0 . 0 . 0 . 0 . 0 0.00 %
09 Presión Atm. Estándar OACI (QNH) 24.113 0 . 0 . 0 . 0 . 0 0.00 %

Totales

569.867 . 0.0000 % . 0.0648 % . 0.0000 % . 0.0000 % 369 0.0648 %

Detalle de Errores Encontrados

Nivel Fecha del Dato Descripción Información Error Fecha Ingreso
1 2014-08-09 14:00:00 Ts debe ser mayor o igual a Td Ts=6.7 - Td=6.8 2023-11-19 12:07:00
1 2014-08-18 13:00:00 Ts debe ser mayor o igual a Td Ts=7.4 - Td=7.5 2023-11-19 12:07:00
1 2014-08-19 11:00:00 Ts debe ser mayor o igual a Td Ts=7.8 - Td=7.9 2023-11-19 12:07:00
1 2014-09-18 12:00:00 Ts debe ser mayor o igual a Td Ts=7.3 - Td=7.4 2023-11-19 12:07:00
1 2015-04-26 12:00:00 Ts debe ser mayor o igual a Td Ts=9.3 - Td=9.4 2023-11-19 12:11:00
1 2015-04-27 12:00:00 Ts debe ser mayor o igual a Td Ts=7.8 - Td=7.9 2023-11-19 12:11:00
1 2015-04-28 02:00:00 Ts debe ser mayor o igual a Td Ts=4.8 - Td=4.9 2023-11-19 12:11:00
1 2015-04-30 10:00:00 Ts debe ser mayor o igual a Td Ts=5.6 - Td=5.7 2023-11-19 12:11:00
1 2015-05-13 09:00:00 Ts debe ser mayor o igual a Td Ts=7.6 - Td=7.7 2023-11-19 12:11:00
1 2015-05-17 11:00:00 Ts debe ser mayor o igual a Td Ts=7.2 - Td=7.3 2023-11-19 12:11:00
1 2015-05-30 09:00:00 Ts debe ser mayor o igual a Td Ts=4.8 - Td=4.9 2023-11-19 12:11:00
1 2015-05-30 10:00:00 Ts debe ser mayor o igual a Td Ts=4.8 - Td=4.9 2023-11-19 12:11:00
1 2015-06-07 09:00:00 Ts debe ser mayor o igual a Td Ts=5.7 - Td=5.8 2023-11-19 12:11:00
1 2015-06-20 10:00:00 Ts debe ser mayor o igual a Td Ts=7.1 - Td=7.2 2023-11-19 12:11:00
1 2015-06-20 12:00:00 Ts debe ser mayor o igual a Td Ts=7.2 - Td=7.3 2023-11-19 12:11:00
1 2015-07-09 13:00:00 Ts debe ser mayor o igual a Td Ts=10.5 - Td=10.6 2023-11-19 12:12:00
1 2015-07-10 04:00:00 Ts debe ser mayor o igual a Td Ts=7.3 - Td=7.4 2023-11-19 12:12:00
1 2015-08-04 04:00:00 Ts debe ser mayor o igual a Td Ts=7.7 - Td=7.8 2023-11-19 12:12:00
1 2015-08-30 04:00:00 Ts debe ser mayor o igual a Td Ts=8.3 - Td=8.4 2023-11-19 12:12:00
1 2015-08-30 05:00:00 Ts debe ser mayor o igual a Td Ts=7.4 - Td=7.5 2023-11-19 12:12:00
1 2015-08-31 10:00:00 Ts debe ser mayor o igual a Td Ts=8.8 - Td=8.9 2023-11-19 12:12:00
1 2015-09-29 12:00:00 Ts debe ser mayor o igual a Td Ts=8.1 - Td=8.2 2023-11-19 12:13:00
1 2015-10-03 11:00:00 Ts debe ser mayor o igual a Td Ts=7.1 - Td=7.2 2023-11-19 12:13:00
1 2015-10-03 12:00:00 Ts debe ser mayor o igual a Td Ts=9.0 - Td=9.1 2023-11-19 12:13:00
1 2016-04-16 05:00:00 Ts debe ser mayor o igual a Td Ts=7.6 - Td=7.7 2023-11-19 12:16:00
1 2016-04-16 12:00:00 Ts debe ser mayor o igual a Td Ts=6.9 - Td=7.0 2023-11-19 12:16:00
1 2016-04-21 11:00:00 Ts debe ser mayor o igual a Td Ts=5.7 - Td=5.8 2023-11-19 12:16:00
1 2016-05-04 07:00:00 Ts debe ser mayor o igual a Td Ts=9.1 - Td=9.2 2023-11-19 12:16:00
1 2016-05-04 15:00:00 Ts debe ser mayor o igual a Td Ts=12.5 - Td=12.6 2023-11-19 12:16:00
1 2016-05-05 04:00:00 Ts debe ser mayor o igual a Td Ts=8.9 - Td=9.0 2023-11-19 12:16:00
1 2016-05-05 08:00:00 Ts debe ser mayor o igual a Td Ts=8.6 - Td=8.7 2023-11-19 12:16:00
1 2016-05-06 07:00:00 Ts debe ser mayor o igual a Td Ts=8.5 - Td=8.6 2023-11-19 12:16:00
1 2016-05-06 08:00:00 Ts debe ser mayor o igual a Td Ts=7.5 - Td=7.6 2023-11-19 12:16:00
1 2016-05-09 14:00:00 Ts debe ser mayor o igual a Td Ts=7.4 - Td=7.5 2023-11-19 12:16:00
1 2016-05-10 08:00:00 Ts debe ser mayor o igual a Td Ts=6.9 - Td=7.0 2023-11-19 12:16:00
1 2016-05-14 05:00:00 Ts debe ser mayor o igual a Td Ts=6.9 - Td=7.0 2023-11-19 12:16:00
1 2016-05-14 13:00:00 Ts debe ser mayor o igual a Td Ts=9.3 - Td=9.4 2023-11-19 12:16:00
1 2016-05-17 09:00:00 Ts debe ser mayor o igual a Td Ts=7.4 - Td=7.5 2023-11-19 12:16:00
1 2016-05-17 10:00:00 Ts debe ser mayor o igual a Td Ts=7.3 - Td=7.4 2023-11-19 12:16:00
1 2016-05-17 11:00:00 Ts debe ser mayor o igual a Td Ts=7.1 - Td=7.2 2023-11-19 12:16:00
1 2016-05-20 09:00:00 Ts debe ser mayor o igual a Td Ts=7.6 - Td=7.7 2023-11-19 12:16:00
1 2016-05-20 13:00:00 Ts debe ser mayor o igual a Td Ts=8.9 - Td=9.0 2023-11-19 12:16:00
1 2016-05-27 10:00:00 Ts debe ser mayor o igual a Td Ts=8.2 - Td=8.3 2023-11-19 12:16:00
1 2016-05-27 14:00:00 Ts debe ser mayor o igual a Td Ts=8.3 - Td=8.4 2023-11-19 12:16:00
1 2016-05-27 15:00:00 Ts debe ser mayor o igual a Td Ts=9.4 - Td=9.5 2023-11-19 12:16:00
1 2016-05-28 14:00:00 Ts debe ser mayor o igual a Td Ts=8.7 - Td=8.8 2023-11-19 12:16:00
1 2016-05-29 11:00:00 Ts debe ser mayor o igual a Td Ts=9.4 - Td=9.5 2023-11-19 12:16:00
1 2016-05-29 12:00:00 Ts debe ser mayor o igual a Td Ts=9.4 - Td=9.5 2023-11-19 12:16:00
1 2016-06-03 08:00:00 Ts debe ser mayor o igual a Td Ts=7.7 - Td=7.8 2023-11-19 12:17:00
1 2016-06-03 09:00:00 Ts debe ser mayor o igual a Td Ts=7.7 - Td=7.8 2023-11-19 12:17:00
1 2016-06-04 04:00:00 Ts debe ser mayor o igual a Td Ts=7.6 - Td=7.7 2023-11-19 12:17:00
1 2016-06-04 06:00:00 Ts debe ser mayor o igual a Td Ts=7.4 - Td=7.5 2023-11-19 12:17:00
1 2016-06-13 03:00:00 Ts debe ser mayor o igual a Td Ts=5.7 - Td=5.8 2023-11-19 12:17:00
1 2016-06-14 17:00:00 Ts debe ser mayor o igual a Td Ts=7.5 - Td=7.6 2023-11-19 12:17:00
1 2016-06-23 17:00:00 Ts debe ser mayor o igual a Td Ts=8.8 - Td=8.9 2023-11-19 12:17:00
1 2016-06-30 04:00:00 Ts debe ser mayor o igual a Td Ts=5.6 - Td=5.7 2023-11-19 12:17:00
1 2016-07-21 03:00:00 Ts debe ser mayor o igual a Td Ts=10.5 - Td=10.6 2023-11-19 12:17:00
1 2016-07-21 04:00:00 Ts debe ser mayor o igual a Td Ts=10.6 - Td=10.7 2023-11-19 12:17:00
1 2016-07-21 06:00:00 Ts debe ser mayor o igual a Td Ts=8.6 - Td=8.7 2023-11-19 12:17:00
1 2016-07-21 07:00:00 Ts debe ser mayor o igual a Td Ts=8.3 - Td=8.4 2023-11-19 12:17:00
1 2016-07-21 08:00:00 Ts debe ser mayor o igual a Td Ts=8.9 - Td=9.0 2023-11-19 12:17:00
1 2016-07-21 10:00:00 Ts debe ser mayor o igual a Td Ts=7.5 - Td=7.6 2023-11-19 12:17:00
1 2016-07-21 11:00:00 Ts debe ser mayor o igual a Td Ts=8.8 - Td=8.9 2023-11-19 12:17:00
1 2016-07-21 12:00:00 Ts debe ser mayor o igual a Td Ts=8.4 - Td=8.5 2023-11-19 12:17:00
1 2016-07-21 13:00:00 Ts debe ser mayor o igual a Td Ts=8.9 - Td=9.0 2023-11-19 12:17:00
1 2016-07-22 01:00:00 Ts debe ser mayor o igual a Td Ts=10.3 - Td=10.4 2023-11-19 12:17:00
1 2016-07-29 12:00:00 Ts debe ser mayor o igual a Td Ts=10.4 - Td=10.5 2023-11-19 12:17:00
1 2016-07-30 13:00:00 Ts debe ser mayor o igual a Td Ts=7.5 - Td=7.6 2023-11-19 12:17:00
1 2016-08-02 13:00:00 Ts debe ser mayor o igual a Td Ts=4.8 - Td=4.9 2023-11-19 12:17:00
1 2016-08-07 12:00:00 Ts debe ser mayor o igual a Td Ts=5.7 - Td=5.8 2023-11-19 12:17:00
1 2016-08-08 08:00:00 Ts debe ser mayor o igual a Td Ts=7.0 - Td=7.1 2023-11-19 12:18:00
1 2016-08-12 10:00:00 Ts debe ser mayor o igual a Td Ts=5.7 - Td=5.8 2023-11-19 12:18:00
1 2016-08-14 02:00:00 Ts debe ser mayor o igual a Td Ts=10.8 - Td=10.9 2023-11-19 12:18:00
1 2016-08-14 06:00:00 Ts debe ser mayor o igual a Td Ts=10.5 - Td=10.6 2023-11-19 12:18:00
1 2016-08-23 13:00:00 Ts debe ser mayor o igual a Td Ts=7.7 - Td=7.8 2023-11-19 12:18:00
1 2016-10-14 06:00:00 Ts debe ser mayor o igual a Td Ts=11.7 - Td=11.8 2023-11-19 12:19:00
1 2016-10-14 09:00:00 Ts debe ser mayor o igual a Td Ts=11.6 - Td=11.7 2023-11-19 12:19:00
1 2017-04-25 12:00:00 Ts debe ser mayor o igual a Td Ts=7.2 - Td=7.3 2023-11-19 12:21:00
1 2017-05-18 13:00:00 Ts debe ser mayor o igual a Td Ts=7.7 - Td=7.8 2023-11-19 12:22:00
1 2017-05-22 14:00:00 Ts debe ser mayor o igual a Td Ts=5.6 - Td=5.7 2023-11-19 12:22:00
1 2017-05-28 14:00:00 Ts debe ser mayor o igual a Td Ts=4.8 - Td=4.9 2023-11-19 12:22:00
1 2017-06-01 12:00:00 Ts debe ser mayor o igual a Td Ts=6.9 - Td=7.0 2023-11-19 12:22:00
1 2017-06-01 14:00:00 Ts debe ser mayor o igual a Td Ts=8.6 - Td=8.7 2023-11-19 12:22:00
1 2017-06-04 13:00:00 Ts debe ser mayor o igual a Td Ts=5.6 - Td=5.7 2023-11-19 12:22:00
1 2017-06-08 15:00:00 Ts debe ser mayor o igual a Td Ts=8.1 - Td=8.2 2023-11-19 12:22:00
1 2017-06-21 00:00:00 Ts debe ser mayor o igual a Td Ts=7.3 - Td=7.4 2023-11-19 12:22:00
1 2017-07-01 13:00:00 Ts debe ser mayor o igual a Td Ts=5.7 - Td=5.8 2023-11-19 12:22:00
1 2017-07-01 15:00:00 Ts debe ser mayor o igual a Td Ts=8.7 - Td=8.8 2023-11-19 12:22:00
1 2017-07-04 18:00:00 Ts debe ser mayor o igual a Td Ts=8.3 - Td=8.4 2023-11-19 12:22:00
1 2017-07-04 21:00:00 Ts debe ser mayor o igual a Td Ts=7.8 - Td=7.9 2023-11-19 12:22:00
1 2017-07-04 22:00:00 Ts debe ser mayor o igual a Td Ts=7.6 - Td=7.7 2023-11-19 12:22:00
1 2017-07-23 09:00:00 Ts debe ser mayor o igual a Td Ts=8.7 - Td=8.8 2023-11-19 12:23:00
1 2017-08-19 13:00:00 Ts debe ser mayor o igual a Td Ts=7.4 - Td=7.5 2023-11-19 12:23:00
1 2017-08-25 05:00:00 Ts debe ser mayor o igual a Td Ts=5.6 - Td=5.7 2023-11-19 12:23:00
1 2017-08-25 06:00:00 Ts debe ser mayor o igual a Td Ts=5.7 - Td=5.8 2023-11-19 12:23:00
1 2018-04-29 14:00:00 Ts debe ser mayor o igual a Td Ts=7.5 - Td=7.6 2023-11-19 12:27:00
1 2018-05-12 13:00:00 Ts debe ser mayor o igual a Td Ts=8.3 - Td=8.4 2023-11-19 12:27:00
1 2018-05-16 12:00:00 Ts debe ser mayor o igual a Td Ts=7.4 - Td=7.5 2023-11-19 12:27:00
1 2018-05-16 13:00:00 Ts debe ser mayor o igual a Td Ts=7.8 - Td=7.9 2023-11-19 12:27:00
1 2018-05-16 14:00:00 Ts debe ser mayor o igual a Td Ts=8.5 - Td=8.6 2023-11-19 12:27:00
1 2018-05-16 15:00:00 Ts debe ser mayor o igual a Td Ts=9.0 - Td=9.1 2023-11-19 12:27:00
1 2018-05-20 12:00:00 Ts debe ser mayor o igual a Td Ts=5.7 - Td=5.8 2023-11-19 12:27:00
1 2018-05-20 14:00:00 Ts debe ser mayor o igual a Td Ts=9.1 - Td=9.2 2023-11-19 12:27:00
1 2018-06-06 04:00:00 Ts debe ser mayor o igual a Td Ts=8.4 - Td=8.5 2023-11-19 12:27:00
1 2018-06-06 06:00:00 Ts debe ser mayor o igual a Td Ts=7.1 - Td=7.2 2023-11-19 12:27:00
1 2018-06-06 07:00:00 Ts debe ser mayor o igual a Td Ts=6.9 - Td=7.0 2023-11-19 12:27:00
1 2018-06-17 15:00:00 Ts debe ser mayor o igual a Td Ts=7.3 - Td=7.4 2023-11-19 12:27:00
1 2018-06-20 01:00:00 Ts debe ser mayor o igual a Td Ts=8.1 - Td=8.2 2023-11-19 12:27:00
1 2018-06-20 15:00:00 Ts debe ser mayor o igual a Td Ts=7.1 - Td=7.2 2023-11-19 12:27:00
1 2018-06-20 16:00:00 Ts debe ser mayor o igual a Td Ts=7.5 - Td=7.6 2023-11-19 12:27:00
1 2018-06-27 12:00:00 Ts debe ser mayor o igual a Td Ts=10.6 - Td=10.7 2023-11-19 12:27:00
1 2018-06-27 14:00:00 Ts debe ser mayor o igual a Td Ts=10.8 - Td=10.9 2023-11-19 12:27:00
1 2018-06-28 03:00:00 Ts debe ser mayor o igual a Td Ts=8.2 - Td=8.3 2023-11-19 12:27:00
1 2018-06-28 13:00:00 Ts debe ser mayor o igual a Td Ts=8.1 - Td=8.2 2023-11-19 12:27:00
1 2018-06-28 16:00:00 Ts debe ser mayor o igual a Td Ts=8.7 - Td=8.8 2023-11-19 12:27:00
1 2018-06-28 20:00:00 Ts debe ser mayor o igual a Td Ts=8.8 - Td=8.9 2023-11-19 12:27:00
1 2018-06-28 21:00:00 Ts debe ser mayor o igual a Td Ts=8.5 - Td=8.6 2023-11-19 12:27:00
1 2018-06-28 22:00:00 Ts debe ser mayor o igual a Td Ts=7.4 - Td=7.5 2023-11-19 12:27:00
1 2018-06-30 06:00:00 Ts debe ser mayor o igual a Td Ts=7.6 - Td=7.7 2023-11-19 12:27:00
1 2018-07-10 16:00:00 Ts debe ser mayor o igual a Td Ts=7.1 - Td=7.2 2023-11-19 12:28:00
1 2018-07-10 17:00:00 Ts debe ser mayor o igual a Td Ts=7.6 - Td=7.7 2023-11-19 12:28:00
1 2018-07-13 13:00:00 Ts debe ser mayor o igual a Td Ts=8.7 - Td=8.8 2023-11-19 12:28:00
1 2018-07-27 13:00:00 Ts debe ser mayor o igual a Td Ts=4.8 - Td=4.9 2023-11-19 12:28:00
1 2018-08-07 12:00:00 Ts debe ser mayor o igual a Td Ts=7.2 - Td=7.3 2023-11-19 12:28:00
1 2019-03-29 09:00:00 Ts debe ser mayor o igual a Td Ts=8.1 - Td=8.2 2023-11-19 12:32:00
1 2019-03-29 13:00:00 Ts debe ser mayor o igual a Td Ts=8.8 - Td=8.9 2023-11-19 12:32:00
1 2019-03-30 13:00:00 Ts debe ser mayor o igual a Td Ts=5.7 - Td=5.8 2023-11-19 12:33:00
1 2019-04-01 14:00:00 Ts debe ser mayor o igual a Td Ts=10.8 - Td=10.9 2023-11-19 12:33:00
1 2019-04-22 17:00:00 Ts debe ser mayor o igual a Td Ts=9.2 - Td=9.3 2023-11-19 12:33:00
1 2019-04-24 08:00:00 Ts debe ser mayor o igual a Td Ts=8.2 - Td=8.3 2023-11-19 12:33:00
1 2019-04-24 09:00:00 Ts debe ser mayor o igual a Td Ts=8.4 - Td=8.5 2023-11-19 12:33:00
1 2019-05-06 14:00:00 Ts debe ser mayor o igual a Td Ts=7.0 - Td=7.1 2023-11-19 12:33:00
1 2019-05-07 15:00:00 Ts debe ser mayor o igual a Td Ts=9.4 - Td=9.5 2023-11-19 12:33:00
1 2019-05-18 03:00:00 Ts debe ser mayor o igual a Td Ts=6.9 - Td=7.0 2023-11-19 12:34:00
1 2019-06-10 15:00:00 Ts debe ser mayor o igual a Td Ts=7.0 - Td=7.1 2023-11-19 12:34:00
1 2019-06-11 16:00:00 Ts debe ser mayor o igual a Td Ts=8.7 - Td=8.8 2023-11-19 12:34:00
1 2019-06-29 04:00:00 Ts debe ser mayor o igual a Td Ts=8.6 - Td=8.7 2023-11-19 12:34:00
1 2019-07-11 10:00:00 Ts debe ser mayor o igual a Td Ts=7.2 - Td=7.3 2023-11-19 12:35:00
1 2019-07-29 13:00:00 Ts debe ser mayor o igual a Td Ts=10.4 - Td=10.5 2023-11-19 12:35:00
1 2019-07-29 14:00:00 Ts debe ser mayor o igual a Td Ts=10.6 - Td=10.7 2023-11-19 12:35:00
1 2019-08-04 14:00:00 Ts debe ser mayor o igual a Td Ts=7.5 - Td=7.6 2023-11-19 12:35:00
1 2019-08-18 15:00:00 Ts debe ser mayor o igual a Td Ts=7.2 - Td=7.3 2023-11-19 12:35:00
1 2019-08-20 09:00:00 Ts debe ser mayor o igual a Td Ts=7.8 - Td=7.9 2023-11-19 12:35:00
1 2019-09-07 09:00:00 Ts debe ser mayor o igual a Td Ts=7.5 - Td=7.6 2023-11-19 12:36:00
1 2019-10-01 07:00:00 Ts debe ser mayor o igual a Td Ts=2.5 - Td=3.3 2023-11-08 09:48:00
1 2019-10-01 10:00:00 Ts debe ser mayor o igual a Td Ts=0.8 - Td=1.1 2023-11-08 09:48:00
1 2019-10-01 11:00:00 Ts debe ser mayor o igual a Td Ts=1.3 - Td=1.6 2023-11-08 09:48:00
1 2019-10-01 12:00:00 Ts debe ser mayor o igual a Td Ts=1.7 - Td=5.4 2023-11-08 09:48:00
1 2019-10-02 11:00:00 Ts debe ser mayor o igual a Td Ts=1.0 - Td=1.9 2023-11-08 09:48:00
1 2019-10-02 12:00:00 Ts debe ser mayor o igual a Td Ts=2.5 - Td=4.9 2023-11-08 09:48:00
1 2019-10-03 06:00:00 Ts debe ser mayor o igual a Td Ts=1.8 - Td=2.1 2023-11-08 09:48:00
1 2019-10-03 09:00:00 Ts debe ser mayor o igual a Td Ts=-0.3 - Td=-0.2 2023-11-08 09:48:00
1 2019-10-03 12:00:00 Ts debe ser mayor o igual a Td Ts=0.3 - Td=2.7 2023-11-08 09:48:00
1 2019-10-03 13:00:00 Ts debe ser mayor o igual a Td Ts=2.8 - Td=4.9 2023-11-08 09:48:00
1 2019-10-03 14:00:00 Ts debe ser mayor o igual a Td Ts=5.0 - Td=6.6 2023-11-08 09:48:00
1 2019-10-03 15:00:00 Ts debe ser mayor o igual a Td Ts=7.4 - Td=8.6 2023-11-08 09:48:00
1 2019-10-04 11:00:00 Ts debe ser mayor o igual a Td Ts=-1.8 - Td=0.4 2023-11-08 09:48:00
1 2019-10-04 12:00:00 Ts debe ser mayor o igual a Td Ts=0.6 - Td=3.7 2023-11-08 09:48:00
1 2019-10-04 13:00:00 Ts debe ser mayor o igual a Td Ts=4.3 - Td=6.5 2023-11-08 09:48:00
1 2019-10-05 06:00:00 Ts debe ser mayor o igual a Td Ts=0.4 - Td=0.5 2023-11-08 09:48:00
1 2019-10-05 11:00:00 Ts debe ser mayor o igual a Td Ts=-1.4 - Td=-0.2 2023-11-08 09:48:00
1 2019-10-05 12:00:00 Ts debe ser mayor o igual a Td Ts=0.0 - Td=2.1 2023-11-08 09:48:00
1 2019-10-05 13:00:00 Ts debe ser mayor o igual a Td Ts=2.2 - Td=5.4 2023-11-08 09:48:00
1 2019-10-06 04:00:00 Ts debe ser mayor o igual a Td Ts=4.6 - Td=5.0 2023-11-08 09:48:00
1 2019-10-06 11:00:00 Ts debe ser mayor o igual a Td Ts=7.1 - Td=7.2 2023-11-08 09:48:00
1 2019-10-06 12:00:00 Ts debe ser mayor o igual a Td Ts=8.3 - Td=8.4 2023-11-08 09:48:00
1 2019-10-07 12:00:00 Ts debe ser mayor o igual a Td Ts=10.0 - Td=10.1 2023-11-08 09:48:00
1 2019-10-07 13:00:00 Ts debe ser mayor o igual a Td Ts=10.3 - Td=11.3 2023-11-08 09:48:00
1 2019-10-07 14:00:00 Ts debe ser mayor o igual a Td Ts=11.6 - Td=12.2 2023-11-08 09:48:00
1 2019-10-08 08:00:00 Ts debe ser mayor o igual a Td Ts=-0.1 - Td=0.5 2023-11-08 09:48:00
1 2019-10-08 09:00:00 Ts debe ser mayor o igual a Td Ts=0.7 - Td=0.8 2023-11-08 09:48:00
1 2019-10-08 11:00:00 Ts debe ser mayor o igual a Td Ts=0.2 - Td=2.5 2023-11-08 09:48:00
1 2019-10-08 12:00:00 Ts debe ser mayor o igual a Td Ts=2.6 - Td=4.1 2023-11-08 09:48:00
1 2019-10-08 13:00:00 Ts debe ser mayor o igual a Td Ts=4.4 - Td=6.8 2023-11-08 09:48:00
1 2019-10-09 09:00:00 Ts debe ser mayor o igual a Td Ts=2.7 - Td=4.5 2023-11-08 09:48:00
1 2019-10-09 11:00:00 Ts debe ser mayor o igual a Td Ts=2.6 - Td=6.3 2023-11-08 09:48:00
1 2019-10-09 12:00:00 Ts debe ser mayor o igual a Td Ts=6.6 - Td=8.1 2023-11-08 09:48:00
1 2019-10-10 11:00:00 Ts debe ser mayor o igual a Td Ts=6.4 - Td=8.3 2023-11-08 09:49:00
1 2019-10-10 12:00:00 Ts debe ser mayor o igual a Td Ts=8.4 - Td=10.7 2023-11-08 09:49:00
1 2019-10-10 13:00:00 Ts debe ser mayor o igual a Td Ts=10.9 - Td=11.6 2023-11-08 09:49:00
1 2019-10-11 11:00:00 Ts debe ser mayor o igual a Td Ts=8.8 - Td=9.1 2023-11-08 09:49:00
1 2019-10-11 12:00:00 Ts debe ser mayor o igual a Td Ts=9.5 - Td=11.2 2023-11-08 09:49:00
1 2019-10-11 13:00:00 Ts debe ser mayor o igual a Td Ts=12.0 - Td=12.1 2023-11-08 09:49:00
1 2019-10-12 12:00:00 Ts debe ser mayor o igual a Td Ts=9.4 - Td=10.1 2023-11-08 09:49:00
1 2019-10-13 05:00:00 Ts debe ser mayor o igual a Td Ts=7.5 - Td=7.7 2023-11-08 09:49:00
1 2019-10-13 11:00:00 Ts debe ser mayor o igual a Td Ts=6.2 - Td=7.2 2023-11-08 09:49:00
1 2019-10-13 12:00:00 Ts debe ser mayor o igual a Td Ts=7.7 - Td=10.1 2023-11-08 09:49:00
1 2019-10-14 05:00:00 Ts debe ser mayor o igual a Td Ts=8.5 - Td=8.7 2023-11-08 09:49:00
1 2019-10-14 06:00:00 Ts debe ser mayor o igual a Td Ts=9.0 - Td=10.2 2023-11-08 09:49:00
1 2019-10-16 07:00:00 Ts debe ser mayor o igual a Td Ts=3.5 - Td=4.0 2023-11-08 09:49:00
1 2019-10-16 10:00:00 Ts debe ser mayor o igual a Td Ts=1.9 - Td=2.7 2023-11-08 09:49:00
1 2019-10-16 11:00:00 Ts debe ser mayor o igual a Td Ts=2.7 - Td=6.8 2023-11-08 09:49:00
1 2019-10-16 12:00:00 Ts debe ser mayor o igual a Td Ts=6.9 - Td=8.8 2023-11-08 09:49:00
1 2019-10-16 13:00:00 Ts debe ser mayor o igual a Td Ts=9.4 - Td=9.9 2023-11-08 09:49:00
1 2019-10-18 05:00:00 Ts debe ser mayor o igual a Td Ts=4.5 - Td=5.2 2023-11-08 09:49:00
1 2019-10-18 11:00:00 Ts debe ser mayor o igual a Td Ts=0.6 - Td=5.5 2023-11-08 09:49:00
1 2019-10-18 12:00:00 Ts debe ser mayor o igual a Td Ts=5.8 - Td=5.9 2023-11-08 09:49:00
1 2019-10-18 13:00:00 Ts debe ser mayor o igual a Td Ts=6.7 - Td=8.8 2023-11-08 09:49:00
1 2019-10-19 04:00:00 Ts debe ser mayor o igual a Td Ts=8.2 - Td=8.3 2023-11-08 09:49:00
1 2019-10-19 10:00:00 Ts debe ser mayor o igual a Td Ts=4.4 - Td=6.0 2023-11-08 09:49:00
1 2019-10-19 11:00:00 Ts debe ser mayor o igual a Td Ts=6.1 - Td=9.4 2023-11-08 09:49:00
1 2019-10-19 12:00:00 Ts debe ser mayor o igual a Td Ts=9.6 - Td=11.8 2023-11-08 09:49:00
1 2019-10-21 06:00:00 Ts debe ser mayor o igual a Td Ts=4.4 - Td=5.0 2023-11-08 09:49:00
1 2019-10-21 11:00:00 Ts debe ser mayor o igual a Td Ts=1.6 - Td=7.5 2023-11-08 09:49:00
1 2019-10-21 12:00:00 Ts debe ser mayor o igual a Td Ts=7.7 - Td=9.4 2023-11-08 09:49:00
1 2019-10-22 09:00:00 Ts debe ser mayor o igual a Td Ts=-0.4 - Td=-0.1 2023-11-08 09:49:00
1 2019-10-22 11:00:00 Ts debe ser mayor o igual a Td Ts=0.5 - Td=4.2 2023-11-08 09:49:00
1 2019-10-22 12:00:00 Ts debe ser mayor o igual a Td Ts=4.9 - Td=6.2 2023-11-08 09:49:00
1 2019-10-23 09:00:00 Ts debe ser mayor o igual a Td Ts=0.6 - Td=0.7 2023-11-08 09:49:00
1 2019-10-23 10:00:00 Ts debe ser mayor o igual a Td Ts=0.9 - Td=2.4 2023-11-08 09:49:00
1 2019-10-23 11:00:00 Ts debe ser mayor o igual a Td Ts=2.7 - Td=7.8 2023-11-08 09:49:00
1 2019-10-23 12:00:00 Ts debe ser mayor o igual a Td Ts=8.1 - Td=9.7 2023-11-08 09:49:00
1 2019-10-24 06:00:00 Ts debe ser mayor o igual a Td Ts=7.2 - Td=7.4 2023-11-08 09:49:00
1 2019-10-24 11:00:00 Ts debe ser mayor o igual a Td Ts=6.8 - Td=7.9 2023-11-08 09:49:00
1 2019-10-24 13:00:00 Ts debe ser mayor o igual a Td Ts=10.3 - Td=11.6 2023-11-08 09:49:00
1 2019-10-25 11:00:00 Ts debe ser mayor o igual a Td Ts=1.4 - Td=5.9 2023-11-08 09:49:00
1 2019-10-25 12:00:00 Ts debe ser mayor o igual a Td Ts=6.2 - Td=9.3 2023-11-08 09:49:00
1 2019-10-26 08:00:00 Ts debe ser mayor o igual a Td Ts=9.1 - Td=9.3 2023-11-08 09:49:00
1 2019-10-26 11:00:00 Ts debe ser mayor o igual a Td Ts=9.0 - Td=10.3 2023-11-08 09:49:00
1 2019-10-26 12:00:00 Ts debe ser mayor o igual a Td Ts=10.6 - Td=11.9 2023-11-08 09:49:00
1 2019-10-28 10:00:00 Ts debe ser mayor o igual a Td Ts=3.2 - Td=3.7 2023-11-08 09:49:00
1 2019-10-28 11:00:00 Ts debe ser mayor o igual a Td Ts=3.9 - Td=8.6 2023-11-08 09:49:00
1 2019-10-28 12:00:00 Ts debe ser mayor o igual a Td Ts=8.9 - Td=10.1 2023-11-08 09:49:00
1 2019-10-29 11:00:00 Ts debe ser mayor o igual a Td Ts=7.8 - Td=8.1 2023-11-08 09:49:00
1 2019-10-29 12:00:00 Ts debe ser mayor o igual a Td Ts=9.5 - Td=9.9 2023-11-08 09:49:00
1 2019-10-30 05:00:00 Ts debe ser mayor o igual a Td Ts=4.3 - Td=4.9 2023-11-08 09:49:00
1 2019-10-30 11:00:00 Ts debe ser mayor o igual a Td Ts=1.2 - Td=6.2 2023-11-08 09:49:00
1 2019-10-30 12:00:00 Ts debe ser mayor o igual a Td Ts=6.4 - Td=8.5 2023-11-08 09:49:00
1 2019-10-30 13:00:00 Ts debe ser mayor o igual a Td Ts=9.9 - Td=10.0 2023-11-08 09:49:00
1 2019-10-31 08:00:00 Ts debe ser mayor o igual a Td Ts=2.3 - Td=2.4 2023-11-08 09:49:00
1 2019-10-31 09:00:00 Ts debe ser mayor o igual a Td Ts=2.7 - Td=3.0 2023-11-08 09:49:00
1 2019-10-31 11:00:00 Ts debe ser mayor o igual a Td Ts=3.0 - Td=7.8 2023-11-08 09:49:00
1 2019-10-31 12:00:00 Ts debe ser mayor o igual a Td Ts=8.2 - Td=9.3 2023-11-08 09:49:00
1 2019-11-01 10:00:00 Ts debe ser mayor o igual a Td Ts=7.9 - Td=8.3 2023-11-08 09:49:00
1 2019-11-01 18:00:00 Ts debe ser mayor o igual a Td Ts=12.2 - Td=12.4 2023-11-08 09:49:00
1 2019-11-02 01:00:00 Ts debe ser mayor o igual a Td Ts=7.5 - Td=8.4 2023-11-08 09:49:00
1 2019-11-02 09:00:00 Ts debe ser mayor o igual a Td Ts=-0.1 - Td=0.5 2023-11-08 09:49:00
1 2019-11-02 10:00:00 Ts debe ser mayor o igual a Td Ts=0.7 - Td=1.4 2023-11-08 09:49:00
1 2019-11-02 11:00:00 Ts debe ser mayor o igual a Td Ts=1.5 - Td=5.8 2023-11-08 09:49:00
1 2019-11-02 12:00:00 Ts debe ser mayor o igual a Td Ts=6.2 - Td=8.3 2023-11-08 09:49:00
1 2019-11-03 11:00:00 Ts debe ser mayor o igual a Td Ts=7.4 - Td=7.5 2023-11-08 09:49:00
1 2019-11-03 12:00:00 Ts debe ser mayor o igual a Td Ts=7.7 - Td=7.8 2023-11-08 09:49:00
1 2019-11-03 13:00:00 Ts debe ser mayor o igual a Td Ts=8.0 - Td=8.5 2023-11-08 09:49:00
1 2019-11-03 14:00:00 Ts debe ser mayor o igual a Td Ts=8.7 - Td=9.7 2023-11-08 09:49:00
1 2019-11-03 15:00:00 Ts debe ser mayor o igual a Td Ts=10.0 - Td=10.3 2023-11-08 09:49:00
1 2019-11-03 16:00:00 Ts debe ser mayor o igual a Td Ts=11.4 - Td=11.5 2023-11-08 09:49:00
1 2019-11-04 04:00:00 Ts debe ser mayor o igual a Td Ts=8.1 - Td=8.9 2023-11-08 09:49:00
1 2019-11-04 07:00:00 Ts debe ser mayor o igual a Td Ts=7.1 - Td=7.3 2023-11-08 09:49:00
1 2019-11-04 08:00:00 Ts debe ser mayor o igual a Td Ts=7.5 - Td=7.7 2023-11-08 09:49:00
1 2019-11-04 09:00:00 Ts debe ser mayor o igual a Td Ts=7.9 - Td=8.4 2023-11-08 09:49:00
1 2019-11-04 10:00:00 Ts debe ser mayor o igual a Td Ts=8.5 - Td=9.1 2023-11-08 09:49:00
1 2019-11-04 11:00:00 Ts debe ser mayor o igual a Td Ts=9.3 - Td=10.0 2023-11-08 09:49:00
1 2019-11-04 12:00:00 Ts debe ser mayor o igual a Td Ts=10.3 - Td=10.8 2023-11-08 09:49:00
1 2019-11-04 13:00:00 Ts debe ser mayor o igual a Td Ts=11.8 - Td=11.9 2023-11-08 09:49:00
1 2019-11-04 15:00:00 Ts debe ser mayor o igual a Td Ts=12.6 - Td=13.7 2023-11-08 09:49:00
1 2019-11-05 08:00:00 Ts debe ser mayor o igual a Td Ts=1.5 - Td=3.6 2023-11-08 09:49:00
1 2019-11-05 10:00:00 Ts debe ser mayor o igual a Td Ts=0.7 - Td=1.5 2023-11-08 09:49:00
1 2019-11-05 11:00:00 Ts debe ser mayor o igual a Td Ts=1.6 - Td=6.6 2023-11-08 09:49:00
1 2019-11-05 12:00:00 Ts debe ser mayor o igual a Td Ts=6.8 - Td=9.1 2023-11-08 09:49:00
1 2019-11-06 11:00:00 Ts debe ser mayor o igual a Td Ts=2.9 - Td=7.6 2023-11-08 09:49:00
1 2019-11-06 12:00:00 Ts debe ser mayor o igual a Td Ts=7.8 - Td=11.3 2023-11-08 09:49:00
1 2019-11-07 10:00:00 Ts debe ser mayor o igual a Td Ts=0.9 - Td=1.4 2023-11-08 09:49:00
1 2019-11-07 11:00:00 Ts debe ser mayor o igual a Td Ts=1.6 - Td=8.2 2023-11-08 09:49:00
1 2019-11-07 12:00:00 Ts debe ser mayor o igual a Td Ts=8.6 - Td=9.9 2023-11-08 09:49:00
1 2019-11-08 11:00:00 Ts debe ser mayor o igual a Td Ts=9.3 - Td=9.7 2023-11-08 09:49:00
1 2019-11-08 12:00:00 Ts debe ser mayor o igual a Td Ts=11.1 - Td=11.6 2023-11-08 09:49:00
1 2019-11-09 10:00:00 Ts debe ser mayor o igual a Td Ts=2.9 - Td=4.1 2023-11-08 09:49:00
1 2019-11-09 11:00:00 Ts debe ser mayor o igual a Td Ts=4.2 - Td=9.5 2023-11-08 09:49:00
1 2019-11-10 10:00:00 Ts debe ser mayor o igual a Td Ts=6.8 - Td=7.1 2023-11-08 09:49:00
1 2019-11-10 11:00:00 Ts debe ser mayor o igual a Td Ts=7.4 - Td=12.1 2023-11-08 09:49:00
1 2019-11-10 12:00:00 Ts debe ser mayor o igual a Td Ts=13.4 - Td=13.6 2023-11-08 09:49:00
1 2019-11-11 10:00:00 Ts debe ser mayor o igual a Td Ts=7.2 - Td=9.1 2023-11-08 09:49:00
1 2019-11-11 11:00:00 Ts debe ser mayor o igual a Td Ts=9.2 - Td=13.4 2023-11-08 09:49:00
1 2019-11-11 12:00:00 Ts debe ser mayor o igual a Td Ts=14.1 - Td=14.3 2023-11-08 09:49:00
1 2019-11-12 07:00:00 Ts debe ser mayor o igual a Td Ts=9.3 - Td=9.4 2023-11-08 09:49:00
1 2019-11-12 09:00:00 Ts debe ser mayor o igual a Td Ts=8.0 - Td=9.2 2023-11-08 09:49:00
1 2019-11-12 10:00:00 Ts debe ser mayor o igual a Td Ts=9.3 - Td=11.0 2023-11-08 09:49:00
1 2019-11-12 11:00:00 Ts debe ser mayor o igual a Td Ts=11.2 - Td=14.3 2023-11-08 09:49:00
1 2019-11-13 10:00:00 Ts debe ser mayor o igual a Td Ts=8.8 - Td=10.3 2023-11-08 09:49:00
1 2019-11-13 11:00:00 Ts debe ser mayor o igual a Td Ts=10.5 - Td=11.9 2023-11-08 09:49:00
1 2019-11-13 12:00:00 Ts debe ser mayor o igual a Td Ts=12.8 - Td=14.2 2023-11-08 09:49:00
1 2019-11-13 14:00:00 Ts debe ser mayor o igual a Td Ts=15.5 - Td=17.4 2023-11-08 09:49:00
1 2019-11-14 10:00:00 Ts debe ser mayor o igual a Td Ts=6.9 - Td=8.3 2023-11-08 09:49:00
1 2019-11-14 11:00:00 Ts debe ser mayor o igual a Td Ts=8.4 - Td=12.6 2023-11-08 09:49:00
1 2019-11-14 12:00:00 Ts debe ser mayor o igual a Td Ts=13.1 - Td=14.3 2023-11-08 09:49:00
1 2019-11-15 10:00:00 Ts debe ser mayor o igual a Td Ts=8.5 - Td=9.6 2023-11-08 09:49:00
1 2019-11-15 11:00:00 Ts debe ser mayor o igual a Td Ts=9.7 - Td=13.6 2023-11-08 09:49:00
1 2019-11-15 12:00:00 Ts debe ser mayor o igual a Td Ts=14.7 - Td=15.7 2023-11-08 09:49:00
1 2019-11-16 07:00:00 Ts debe ser mayor o igual a Td Ts=11.5 - Td=11.6 2023-11-08 09:49:00
1 2019-11-16 08:00:00 Ts debe ser mayor o igual a Td Ts=11.9 - Td=13.1 2023-11-08 09:49:00
1 2019-11-16 11:00:00 Ts debe ser mayor o igual a Td Ts=13.3 - Td=13.4 2023-11-08 09:49:00
1 2019-11-16 12:00:00 Ts debe ser mayor o igual a Td Ts=13.5 - Td=13.8 2023-11-08 09:49:00
1 2019-11-16 13:00:00 Ts debe ser mayor o igual a Td Ts=13.9 - Td=14.2 2023-11-08 09:49:00
1 2019-11-16 14:00:00 Ts debe ser mayor o igual a Td Ts=14.5 - Td=14.7 2023-11-08 09:49:00
1 2019-11-16 15:00:00 Ts debe ser mayor o igual a Td Ts=15.9 - Td=16.4 2023-11-08 09:49:00
1 2019-11-17 10:00:00 Ts debe ser mayor o igual a Td Ts=3.1 - Td=6.8 2023-11-08 09:49:00
1 2019-11-17 11:00:00 Ts debe ser mayor o igual a Td Ts=7.0 - Td=9.5 2023-11-08 09:49:00
1 2019-11-18 10:00:00 Ts debe ser mayor o igual a Td Ts=2.1 - Td=4.8 2023-11-08 09:49:00
1 2019-11-18 11:00:00 Ts debe ser mayor o igual a Td Ts=4.9 - Td=9.1 2023-11-08 09:49:00
1 2019-11-19 10:00:00 Ts debe ser mayor o igual a Td Ts=3.9 - Td=6.2 2023-11-08 09:49:00
1 2019-11-19 11:00:00 Ts debe ser mayor o igual a Td Ts=6.4 - Td=10.3 2023-11-08 09:49:00
1 2019-11-20 10:00:00 Ts debe ser mayor o igual a Td Ts=3.6 - Td=6.1 2023-11-08 09:49:00
1 2019-11-20 11:00:00 Ts debe ser mayor o igual a Td Ts=6.3 - Td=10.1 2023-11-08 09:49:00
1 2019-11-21 08:00:00 Ts debe ser mayor o igual a Td Ts=7.7 - Td=8.4 2023-11-08 09:49:00
1 2019-11-21 10:00:00 Ts debe ser mayor o igual a Td Ts=7.3 - Td=9.4 2023-11-08 09:49:00
1 2019-11-21 11:00:00 Ts debe ser mayor o igual a Td Ts=9.7 - Td=10.9 2023-11-08 09:49:00
1 2019-11-22 10:00:00 Ts debe ser mayor o igual a Td Ts=5.9 - Td=7.9 2023-11-08 09:49:00
1 2019-11-22 11:00:00 Ts debe ser mayor o igual a Td Ts=8.1 - Td=11.2 2023-11-08 09:49:00
1 2019-11-23 08:00:00 Ts debe ser mayor o igual a Td Ts=10.3 - Td=10.6 2023-11-08 09:49:00
1 2019-11-23 09:00:00 Ts debe ser mayor o igual a Td Ts=11.1 - Td=11.2 2023-11-08 09:49:00
1 2019-11-24 10:00:00 Ts debe ser mayor o igual a Td Ts=10.3 - Td=10.9 2023-11-08 09:49:00
1 2019-11-24 11:00:00 Ts debe ser mayor o igual a Td Ts=11.1 - Td=12.4 2023-11-08 09:49:00
1 2019-11-24 12:00:00 Ts debe ser mayor o igual a Td Ts=12.6 - Td=14.4 2023-11-08 09:49:00
1 2019-11-26 10:00:00 Ts debe ser mayor o igual a Td Ts=0.8 - Td=3.5 2023-11-08 09:49:00
1 2019-11-26 11:00:00 Ts debe ser mayor o igual a Td Ts=3.7 - Td=6.2 2023-11-08 09:49:00
1 2019-11-26 12:00:00 Ts debe ser mayor o igual a Td Ts=7.2 - Td=8.0 2023-11-08 09:49:00
1 2019-11-27 10:00:00 Ts debe ser mayor o igual a Td Ts=0.5 - Td=3.2 2023-11-08 09:49:00
1 2019-11-27 11:00:00 Ts debe ser mayor o igual a Td Ts=3.5 - Td=6.2 2023-11-08 09:49:00
1 2019-11-28 06:00:00 Ts debe ser mayor o igual a Td Ts=5.6 - Td=6.9 2023-11-08 09:49:00
1 2019-11-28 10:00:00 Ts debe ser mayor o igual a Td Ts=3.0 - Td=5.2 2023-11-08 09:49:00
1 2019-11-28 11:00:00 Ts debe ser mayor o igual a Td Ts=5.5 - Td=8.0 2023-11-08 09:49:00
1 2019-11-28 12:00:00 Ts debe ser mayor o igual a Td Ts=9.7 - Td=10.5 2023-11-08 09:49:00
1 2019-11-29 05:00:00 Ts debe ser mayor o igual a Td Ts=5.2 - Td=7.8 2023-11-08 09:49:00
1 2019-11-29 06:00:00 Ts debe ser mayor o igual a Td Ts=8.4 - Td=8.7 2023-11-08 09:49:00
1 2019-11-29 11:00:00 Ts debe ser mayor o igual a Td Ts=10.5 - Td=11.0 2023-11-08 09:49:00
1 2019-11-29 12:00:00 Ts debe ser mayor o igual a Td Ts=11.5 - Td=12.4 2023-11-08 09:49:00
1 2019-11-30 10:00:00 Ts debe ser mayor o igual a Td Ts=1.5 - Td=2.3 2023-11-08 09:49:00
1 2019-11-30 11:00:00 Ts debe ser mayor o igual a Td Ts=2.5 - Td=7.8 2023-11-08 09:49:00
1 2019-12-01 10:00:00 Ts debe ser mayor o igual a Td Ts=4.8 - Td=7.3 2023-11-08 09:49:00
1 2019-12-01 11:00:00 Ts debe ser mayor o igual a Td Ts=7.6 - Td=10.8 2023-11-08 09:49:00
1 2019-12-01 12:00:00 Ts debe ser mayor o igual a Td Ts=12.8 - Td=13.1 2023-11-08 09:49:00
1 2019-12-02 10:00:00 Ts debe ser mayor o igual a Td Ts=8.1 - Td=10.8 2023-11-08 09:49:00
1 2019-12-02 11:00:00 Ts debe ser mayor o igual a Td Ts=11.1 - Td=14.1 2023-11-08 09:49:00
1 2019-12-03 11:00:00 Ts debe ser mayor o igual a Td Ts=8.9 - Td=9.6 2023-11-08 09:49:00
1 2019-12-04 11:00:00 Ts debe ser mayor o igual a Td Ts=5.9 - Td=7.7 2023-11-08 09:49:00
1 2019-12-05 10:00:00 Ts debe ser mayor o igual a Td Ts=5.5 - Td=8.3 2023-11-08 09:49:00
1 2019-12-05 11:00:00 Ts debe ser mayor o igual a Td Ts=8.5 - Td=10.8 2023-11-08 09:49:00
1 2019-12-06 10:00:00 Ts debe ser mayor o igual a Td Ts=8.0 - Td=9.2 2023-11-08 09:49:00
1 2019-12-06 11:00:00 Ts debe ser mayor o igual a Td Ts=9.7 - Td=10.7 2023-11-08 09:49:00
1 2019-12-07 10:00:00 Ts debe ser mayor o igual a Td Ts=5.8 - Td=7.5 2023-11-08 09:49:00
1 2019-12-07 11:00:00 Ts debe ser mayor o igual a Td Ts=7.6 - Td=12.5 2023-11-08 09:49:00
1 2019-12-07 12:00:00 Ts debe ser mayor o igual a Td Ts=13.3 - Td=13.9 2023-11-08 09:49:00
1 2019-12-08 10:00:00 Ts debe ser mayor o igual a Td Ts=6.4 - Td=8.2 2023-11-08 09:49:00
1 2019-12-08 11:00:00 Ts debe ser mayor o igual a Td Ts=8.3 - Td=13.0 2023-11-08 09:49:00
1 2019-12-08 12:00:00 Ts debe ser mayor o igual a Td Ts=14.3 - Td=14.6 2023-11-08 09:49:00
1 2019-12-09 10:00:00 Ts debe ser mayor o igual a Td Ts=7.7 - Td=9.8 2023-11-08 09:49:00
1 2019-12-09 11:00:00 Ts debe ser mayor o igual a Td Ts=10.0 - Td=14.5 2023-11-08 09:49:00
1 2019-12-10 10:00:00 Ts debe ser mayor o igual a Td Ts=7.6 - Td=9.3 2023-11-08 09:49:00
1 2019-12-10 11:00:00 Ts debe ser mayor o igual a Td Ts=9.5 - Td=13.3 2023-11-08 09:49:00
1 2019-12-11 06:00:00 Ts debe ser mayor o igual a Td Ts=10.4 - Td=10.7 2023-11-08 09:49:00
1 2019-12-11 09:00:00 Ts debe ser mayor o igual a Td Ts=8.4 - Td=9.5 2023-11-08 09:49:00
1 2019-12-11 10:00:00 Ts debe ser mayor o igual a Td Ts=9.8 - Td=10.5 2023-11-08 09:49:00
1 2019-12-11 11:00:00 Ts debe ser mayor o igual a Td Ts=10.7 - Td=11.4 2023-11-08 09:49:00
1 2019-12-11 12:00:00 Ts debe ser mayor o igual a Td Ts=11.6 - Td=12.5 2023-11-08 09:49:00
1 2019-12-11 13:00:00 Ts debe ser mayor o igual a Td Ts=12.7 - Td=14.0 2023-11-08 09:49:00
1 2019-12-11 14:00:00 Ts debe ser mayor o igual a Td Ts=15.8 - Td=16.0 2023-11-08 09:49:00
1 2019-12-12 10:00:00 Ts debe ser mayor o igual a Td Ts=5.9 - Td=6.0 2023-11-08 09:50:00
1 2019-12-12 11:00:00 Ts debe ser mayor o igual a Td Ts=6.9 - Td=8.3 2023-11-08 09:50:00
1 2019-12-14 10:00:00 Ts debe ser mayor o igual a Td Ts=7.7 - Td=10.4 2023-11-08 09:50:00
1 2019-12-14 11:00:00 Ts debe ser mayor o igual a Td Ts=10.4 - Td=11.8 2023-11-08 09:50:00
1 2019-12-14 12:00:00 Ts debe ser mayor o igual a Td Ts=11.9 - Td=15.7 2023-11-08 09:50:00
1 2019-12-15 07:00:00 Ts debe ser mayor o igual a Td Ts=7.2 - Td=7.4 2023-11-08 09:50:00
1 2019-12-15 09:00:00 Ts debe ser mayor o igual a Td Ts=5.6 - Td=6.6 2023-11-08 09:50:00
1 2019-12-15 10:00:00 Ts debe ser mayor o igual a Td Ts=7.1 - Td=7.6 2023-11-08 09:50:00
1 2019-12-15 11:00:00 Ts debe ser mayor o igual a Td Ts=8.2 - Td=9.4 2023-11-08 09:50:00
1 2019-12-16 10:00:00 Ts debe ser mayor o igual a Td Ts=7.0 - Td=8.4 2023-11-08 09:50:00
1 2019-12-16 11:00:00 Ts debe ser mayor o igual a Td Ts=8.9 - Td=10.1 2023-11-08 09:50:00
1 2019-12-17 10:00:00 Ts debe ser mayor o igual a Td Ts=4.5 - Td=7.5 2023-11-08 09:50:00
1 2019-12-17 11:00:00 Ts debe ser mayor o igual a Td Ts=7.8 - Td=10.3 2023-11-08 09:50:00
Errores del Nivel 369
Informe generado el 05-03-2024 10:13
Requerimiento: RE6001